Buea, Cameroon
Current Conditions -  °F | °C
As of 4:00 PM on Friday 31 Oct 2014 (Local Time) from FKKD Reporting Station
Thunderstorm Thunderstorm  
Wind Chill: 24°   Ceiling: 1000
Heat Index: 24°   Visibility: 6mi
Dew Point: 22°   Wind: 0mph
Humidity: 89%   Direction: NA
Pressure: 29.83"   Gusts: NA
Location:  4.16°N, 9.23°E
Report Text: FKKD 311500Z 00000KT 9999 TS BKN010 SCT013CB 24/22 Q1010 BECMGBKN013 SCT016CB
Loading
Personal Weather Stations






























Interactive Weather Map
Tropical Storm Tracking
New forecast layout! Learn more

10-Day Weather Forecast

Advertisements
Track Severe Weather on mobile